Aérodrome :
LOGIN :

S'inscrire | Disclaimer

   EN    FR    IT 

 










Légende :    VFR   VFR Marginal   IFR   IFR Intensif   IFR Très Intensif
Visi : 
Plafond : 
>= 8 km
>= 3000ft
5 à 8 km
1000 à 3000 ft
1500m à 5 km
500 à 1000 ft
800 à 1500m
200 à 500 ft
< 800m
< 200 ft
Symboles :   Orages  Brouillard  Fortes neiges  Fortes précipitations  Vent > 20 kt
SIGMETs :   Divers  Orages  Givrage  Turbulence  Onde Orograph.  Cendres Volcan.







- Altitude de l'aérodrome : 157 ft
- Code IATA : SXF


EDDB - Berlin Schönefeld

DERNIER METAR :
  • 191150Z 25008KT 220V290 9999 FEW047 24/13 Q1013 TEMPO SHRA

METARs EXPIRÉS :
  • 191120Z 24010KT 210V290 9999 FEW043 24/13 Q1013 TEMPO FM1130 SHRA
  • 191050Z 27009KT 9999 FEW043 24/13 Q1013 TEMPO FM1130 SHRA
  • 191020Z 28008KT 240V320 9999 FEW041 24/13 Q1013 NOSIG
  • 190950Z 28007KT 240V310 9999 FEW041 23/13 Q1013 NOSIG
  • 190920Z 29007KT 250V330 CAVOK 24/13 Q1013 NOSIG

TAF TAF EDDB
Valide du 19 à 12h jusqu'au 20 à 12h UTC


191100Z 1912/2012 23008KT CAVOK
PROB30
TEMPO 1912/1916 -TSRA SCT040CB
BECMG 1919/1921 VRB02KT
BECMG 2006/2008 18007KT
Pas de NOTAMs connus pour ce terrain.



MET'MAP, la Météo Aéronautique d'un coup d'oeil ! - Copyright ORBIFLY Décembre 2007 - Disclaimer

ORBIFLY MET'MAP TEAM :

Programmation & Développement : Alexandra Zaïnal
Conception & Développement : Baudouin d'Aumeries
Co-Programmation & Développement : Marc-Olivier Méhu
Soutien technique & logistique : Manuel Goepfert

Contact : metmap@orbifly.com




SOURCES & CREDITS :

   NOAA